createdAt,value
2022-10-06T00:00:34.954Z,90.42
2022-10-06T00:01:35.011Z,90.42
2022-10-06T00:02:34.966Z,90.53
2022-10-06T00:03:34.913Z,90.53
2022-10-06T00:04:34.901Z,90.42
2022-10-06T00:05:34.889Z,90.42
2022-10-06T00:06:34.869Z,90.22
2022-10-06T00:07:34.864Z,90.32
2022-10-06T00:08:34.850Z,90.42
2022-10-06T00:09:34.890Z,90.42
2022-10-06T00:10:34.811Z,90.42
2022-10-06T00:11:34.802Z,90.32
2022-10-06T00:12:34.792Z,90.32
2022-10-06T00:13:34.783Z,90.42
2022-10-06T00:14:34.762Z,90.42
2022-10-06T00:15:34.793Z,90.53
2022-10-06T00:16:34.744Z,90.62
2022-10-06T00:17:34.713Z,90.62
2022-10-06T00:18:34.747Z,90.73
2022-10-06T00:19:34.701Z,90.83
2022-10-06T00:20:34.691Z,90.83
2022-10-06T00:21:34.670Z,90.93
2022-10-06T00:22:34.673Z,90.83
2022-10-06T00:23:34.657Z,90.83
2022-10-06T00:24:34.633Z,90.83
2022-10-06T00:25:34.615Z,90.83
2022-10-06T00:26:34.641Z,90.93
2022-10-06T00:27:34.603Z,91.03
2022-10-06T00:28:35.006Z,91.03
2022-10-06T00:29:34.573Z,91.03
2022-10-06T00:30:34.561Z,91.03
2022-10-06T00:31:34.651Z,91.13
2022-10-06T00:32:34.530Z,91.13
2022-10-06T00:33:34.512Z,91.24
2022-10-06T00:34:34.514Z,91.34
2022-10-06T00:35:34.482Z,91.44
2022-10-06T00:36:34.480Z,91.54
2022-10-06T00:37:34.464Z,91.34
2022-10-06T00:38:34.455Z,91.34
2022-10-06T00:39:34.456Z,91.44
2022-10-06T00:40:34.431Z,91.58
2022-10-06T00:41:34.417Z,91.68
2022-10-06T00:42:34.405Z,91.89
2022-10-06T00:43:34.384Z,91.99
2022-10-06T00:44:34.385Z,91.99
2022-10-06T00:45:34.378Z,91.99
2022-10-06T00:46:34.432Z,92.09
2022-10-06T00:47:34.323Z,92.09
2022-10-06T00:48:34.327Z,92.09
2022-10-06T00:49:34.313Z,92.09
2022-10-06T00:50:34.304Z,92.09
2022-10-06T00:51:34.284Z,92.09
2022-10-06T00:52:34.265Z,92.09
2022-10-06T00:53:34.253Z,91.99
2022-10-06T00:54:34.274Z,91.85
2022-10-06T00:55:34.269Z,91.74
2022-10-06T00:56:34.228Z,91.64
2022-10-06T00:57:34.225Z,91.54
2022-10-06T00:58:34.205Z,91.64
2022-10-06T00:59:34.186Z,91.64
2022-10-06T01:00:34.195Z,91.64
2022-10-06T01:01:34.213Z,91.44
2022-10-06T01:02:34.225Z,91.34
2022-10-06T01:03:34.127Z,91.09
2022-10-06T01:04:34.113Z,90.99
2022-10-06T01:05:34.096Z,90.89
2022-10-06T01:06:34.096Z,90.89
2022-10-06T01:07:34.067Z,90.89
2022-10-06T01:08:34.066Z,90.89
2022-10-06T01:09:34.047Z,90.79
2022-10-06T01:10:34.044Z,90.69
2022-10-06T01:11:34.040Z,90.69
2022-10-06T01:12:34.038Z,90.44
2022-10-06T01:13:34.000Z,90.34
2022-10-06T01:14:34.003Z,90.24
2022-10-06T01:15:34.014Z,90.24
2022-10-06T01:16:33.976Z,90.24
2022-10-06T01:17:33.945Z,90.03
2022-10-06T01:18:33.944Z,89.94
2022-10-06T01:19:33.928Z,89.94
2022-10-06T01:20:33.935Z,89.94
2022-10-06T01:21:40.915Z,89.83
2022-10-06T01:22:33.904Z,89.73
2022-10-06T01:23:33.875Z,89.73
2022-10-06T01:24:33.866Z,89.59
2022-10-06T01:25:33.836Z,89.59
2022-10-06T01:26:33.837Z,89.48
2022-10-06T01:27:33.865Z,89.39
2022-10-06T01:28:34.270Z,89.08
2022-10-06T01:29:33.806Z,88.88
2022-10-06T01:30:33.777Z,88.78
2022-10-06T01:31:33.837Z,88.43
2022-10-06T01:32:33.755Z,88.33
2022-10-06T01:33:33.756Z,88.23
2022-10-06T01:34:33.751Z,88.23
2022-10-06T01:35:33.728Z,88.23
2022-10-06T01:36:33.727Z,88.23
2022-10-06T01:37:33.705Z,88.23
2022-10-06T01:38:33.701Z,88.23
2022-10-06T01:39:33.669Z,88.33
2022-10-06T01:40:33.665Z,88.33
2022-10-06T01:41:33.626Z,88.33
2022-10-06T01:42:33.650Z,88.33
2022-10-06T01:43:33.616Z,88.33
2022-10-06T01:44:33.598Z,88.43
2022-10-06T01:45:33.596Z,88.33
2022-10-06T01:46:33.631Z,88.33
2022-10-06T01:47:33.555Z,88.33
2022-10-06T01:48:33.545Z,88.33
2022-10-06T01:49:33.548Z,88.43
2022-10-06T01:50:33.520Z,88.68
2022-10-06T01:51:33.508Z,88.78
2022-10-06T01:52:33.575Z,88.88
2022-10-06T01:53:33.480Z,88.98
2022-10-06T01:54:33.468Z,88.98
2022-10-06T01:55:33.469Z,88.98
2022-10-06T01:56:33.440Z,88.78
2022-10-06T01:57:33.467Z,88.88
2022-10-06T01:58:33.420Z,88.88
2022-10-06T01:59:33.419Z,88.88
2022-10-06T02:00:33.390Z,88.78
2022-10-06T02:01:33.488Z,88.64
2022-10-06T02:02:33.405Z,88.78
2022-10-06T02:03:33.348Z,88.68
2022-10-06T02:04:33.351Z,88.78
2022-10-06T02:05:33.322Z,88.88
2022-10-06T02:06:33.362Z,89.08
2022-10-06T02:07:33.311Z,89.18
2022-10-06T02:08:33.301Z,89.28
2022-10-06T02:09:33.268Z,89.48
2022-10-06T02:10:33.270Z,89.59
2022-10-06T02:11:33.241Z,89.73
2022-10-06T02:12:33.230Z,89.83
2022-10-06T02:13:33.244Z,89.94
2022-10-06T02:14:33.209Z,89.94
2022-10-06T02:15:33.189Z,90.03
2022-10-06T02:16:33.180Z,90.03
2022-10-06T02:17:33.181Z,90.03
2022-10-06T02:18:33.163Z,89.94
2022-10-06T02:19:33.162Z,89.94
2022-10-06T02:20:33.131Z,90.03
2022-10-06T02:21:33.100Z,90.14
2022-10-06T02:22:33.098Z,90.24
2022-10-06T02:23:33.096Z,90.44
2022-10-06T02:24:33.082Z,90.54
2022-10-06T02:25:33.050Z,90.79
2022-10-06T02:26:33.051Z,90.99
2022-10-06T02:27:33.029Z,90.84
2022-10-06T02:28:33.551Z,90.75
2022-10-06T02:29:33.012Z,90.64
2022-10-06T02:30:33.024Z,90.54
2022-10-06T02:31:33.070Z,90.54
2022-10-06T02:32:32.973Z,90.64
2022-10-06T02:33:32.960Z,90.64
2022-10-06T02:34:32.950Z,90.75
2022-10-06T02:35:32.943Z,90.95
2022-10-06T02:36:32.922Z,90.84
2022-10-06T02:37:32.893Z,90.84
2022-10-06T02:38:33.033Z,90.84
2022-10-06T02:39:32.881Z,90.95
2022-10-06T02:40:32.860Z,91.09
2022-10-06T02:41:32.860Z,91.05
2022-10-06T02:42:32.833Z,90.84
2022-10-06T02:43:32.822Z,90.75
2022-10-06T02:44:32.821Z,90.75
2022-10-06T02:45:32.807Z,90.75
2022-10-06T02:46:32.841Z,90.64
2022-10-06T02:47:32.785Z,90.64
2022-10-06T02:48:32.921Z,90.75
2022-10-06T02:49:32.794Z,90.75
2022-10-06T02:50:32.754Z,90.75
2022-10-06T02:51:32.717Z,90.75
2022-10-06T02:52:32.706Z,90.75
2022-10-06T02:53:32.696Z,90.64
2022-10-06T02:54:32.693Z,90.64
2022-10-06T02:55:32.673Z,90.75
2022-10-06T02:56:32.652Z,90.84
2022-10-06T02:57:32.652Z,90.84
2022-10-06T02:58:32.918Z,90.95
2022-10-06T02:59:32.614Z,90.95
2022-10-06T03:00:32.643Z,90.95
2022-10-06T03:01:32.675Z,91.15
2022-10-06T03:02:32.660Z,91.15
2022-10-06T03:03:32.563Z,91.15
2022-10-06T03:04:32.555Z,91.05
2022-10-06T03:05:32.549Z,91.15
2022-10-06T03:06:32.524Z,90.95
2022-10-06T03:07:32.506Z,90.95
2022-10-06T03:08:32.670Z,90.84
2022-10-06T03:09:32.481Z,90.84
2022-10-06T03:10:32.484Z,90.75
2022-10-06T03:11:32.533Z,90.75
2022-10-06T03:12:32.452Z,90.84
2022-10-06T03:13:32.443Z,90.84
2022-10-06T03:14:32.423Z,91.05
2022-10-06T03:15:32.405Z,90.95
2022-10-06T03:16:32.489Z,90.95
2022-10-06T03:17:32.386Z,90.84
2022-10-06T03:18:32.756Z,90.84
2022-10-06T03:19:32.405Z,90.84
2022-10-06T03:20:32.345Z,90.75
2022-10-06T03:21:32.333Z,90.75
2022-10-06T03:22:32.338Z,90.75
2022-10-06T03:23:32.311Z,90.60
2022-10-06T03:24:32.284Z,90.50
2022-10-06T03:25:32.279Z,90.40
2022-10-06T03:26:32.258Z,90.40
2022-10-06T03:27:32.259Z,90.50
2022-10-06T03:28:32.879Z,90.50
2022-10-06T03:29:32.226Z,90.60
2022-10-06T03:30:32.208Z,90.50
2022-10-06T03:31:32.303Z,90.40
2022-10-06T03:32:32.199Z,90.40
2022-10-06T03:33:32.187Z,90.30
2022-10-06T03:34:32.157Z,90.09
2022-10-06T03:35:32.146Z,89.79
2022-10-06T03:36:32.147Z,89.79
2022-10-06T03:37:32.121Z,89.69
2022-10-06T03:38:32.221Z,89.69
2022-10-06T03:39:32.092Z,89.54
2022-10-06T03:40:32.077Z,89.45
2022-10-06T03:41:32.076Z,89.45
2022-10-06T03:42:32.079Z,89.34
2022-10-06T03:43:32.089Z,89.45
2022-10-06T03:44:32.052Z,89.45
2022-10-06T03:45:32.037Z,89.45
2022-10-06T03:46:32.086Z,89.34
2022-10-06T03:47:32.009Z,89.45
2022-10-06T03:48:32.525Z,89.45
2022-10-06T03:49:31.958Z,89.54
2022-10-06T03:50:31.960Z,89.45
2022-10-06T03:51:31.944Z,89.54
2022-10-06T03:52:31.919Z,89.45
2022-10-06T03:53:31.919Z,89.45
2022-10-06T03:54:31.890Z,89.34
2022-10-06T03:55:31.889Z,89.45
2022-10-06T03:56:31.880Z,89.45
2022-10-06T03:57:31.863Z,89.45
2022-10-06T03:58:32.357Z,89.45
2022-10-06T03:59:31.848Z,89.54
2022-10-06T04:00:32.019Z,89.75
2022-10-06T04:01:31.839Z,89.85
2022-10-06T04:02:31.858Z,89.95
2022-10-06T04:03:31.780Z,90.25
2022-10-06T04:04:31.782Z,90.56
2022-10-06T04:05:31.762Z,90.86
2022-10-06T04:06:31.738Z,91.06
2022-10-06T04:07:31.720Z,91.51
2022-10-06T04:08:32.116Z,91.82
2022-10-06T04:09:31.690Z,92.02
2022-10-06T04:10:31.713Z,92.22
2022-10-06T04:11:31.711Z,92.42
2022-10-06T04:12:31.673Z,92.63
2022-10-06T04:13:31.674Z,92.32
2022-10-06T04:14:31.642Z,92.63
2022-10-06T04:15:31.623Z,92.42
2022-10-06T04:16:31.681Z,92.42
2022-10-06T04:17:31.609Z,92.32
2022-10-06T04:18:32.083Z,92.32
2022-10-06T04:19:31.587Z,92.02
2022-10-06T04:20:31.602Z,91.82
2022-10-06T04:21:31.569Z,91.67
2022-10-06T04:22:31.529Z,91.47
2022-10-06T04:23:31.511Z,91.57
2022-10-06T04:24:31.526Z,91.37
2022-10-06T04:25:31.493Z,91.27
2022-10-06T04:26:31.475Z,91.06
2022-10-06T04:27:31.465Z,90.86
2022-10-06T04:28:31.862Z,90.86
2022-10-06T04:29:31.432Z,90.76
2022-10-06T04:30:31.448Z,90.86
2022-10-06T04:31:31.474Z,91.16
2022-10-06T04:32:31.394Z,90.66
2022-10-06T04:33:31.392Z,90.56
2022-10-06T04:34:31.373Z,89.95
2022-10-06T04:35:31.383Z,89.95
2022-10-06T04:36:31.362Z,89.30
2022-10-06T04:37:31.335Z,88.19
2022-10-06T04:38:31.980Z,87.99
2022-10-06T04:39:31.312Z,87.68
2022-10-06T04:40:31.296Z,87.99
2022-10-06T04:41:31.285Z,88.09
2022-10-06T04:42:34.856Z,88.19
2022-10-06T04:43:31.273Z,88.19
2022-10-06T04:44:31.235Z,87.52
2022-10-06T04:45:31.286Z,86.51
2022-10-06T04:46:42.848Z,85.56
2022-10-06T04:47:32.234Z,85.16
2022-10-06T04:48:31.587Z,83.84
2022-10-06T04:49:31.196Z,83.74
2022-10-06T04:50:31.164Z,81.51
2022-10-06T04:51:31.145Z,80.10
2022-10-06T04:52:31.155Z,79.25
2022-10-06T04:53:31.126Z,78.95
2022-10-06T04:54:33.662Z,78.24
2022-10-06T04:55:31.106Z,78.24
2022-10-06T04:56:31.142Z,78.44
2022-10-06T04:57:31.097Z,78.85
2022-10-06T04:58:31.590Z,78.75
2022-10-06T04:59:31.047Z,78.55
2022-10-06T05:00:31.049Z,77.84
2022-10-06T05:01:31.070Z,77.53
2022-10-06T05:02:31.038Z,77.33
2022-10-06T05:03:31.014Z,77.53
2022-10-06T05:04:31.008Z,76.72
2022-10-06T05:05:30.965Z,76.22
2022-10-06T05:06:30.946Z,76.52
2022-10-06T05:07:30.936Z,76.12
2022-10-06T05:08:31.376Z,76.02
2022-10-06T05:09:30.928Z,75.51
2022-10-06T05:10:30.915Z,75.71
2022-10-06T05:11:30.898Z,75.61
2022-10-06T05:12:30.879Z,75.21
2022-10-06T05:13:30.878Z,75.41
2022-10-06T05:14:30.857Z,75.41
2022-10-06T05:15:30.848Z,75.81
2022-10-06T05:16:30.882Z,75.71
2022-10-06T05:17:30.820Z,75.81
2022-10-06T05:18:31.182Z,76.02
2022-10-06T05:19:30.787Z,75.92
2022-10-06T05:20:30.776Z,76.12
2022-10-06T05:21:30.757Z,75.81
2022-10-06T05:22:30.750Z,76.12
2022-10-06T05:23:30.743Z,75.51
2022-10-06T05:24:30.746Z,75.41
2022-10-06T05:25:30.722Z,75.51
2022-10-06T05:26:30.710Z,75.92
2022-10-06T05:27:30.699Z,75.92
2022-10-06T05:28:31.048Z,76.12
2022-10-06T05:29:30.649Z,76.46
2022-10-06T05:30:30.639Z,76.35
2022-10-06T05:31:30.636Z,76.35
2022-10-06T05:32:35.776Z,75.95
2022-10-06T05:33:31.609Z,76.26
2022-10-06T05:34:30.591Z,76.35
2022-10-06T05:35:30.581Z,76.56
2022-10-06T05:36:30.564Z,76.66
2022-10-06T05:37:30.573Z,76.76
2022-10-06T05:38:30.963Z,76.26
2022-10-06T05:39:30.534Z,76.46
2022-10-06T05:40:30.511Z,76.26
2022-10-06T05:41:30.511Z,76.46
2022-10-06T05:42:30.501Z,76.46
2022-10-06T05:43:30.480Z,76.35
2022-10-06T05:44:30.488Z,76.35
2022-10-06T05:45:30.637Z,76.56
2022-10-06T05:46:30.438Z,76.15
2022-10-06T05:47:30.430Z,75.95
2022-10-06T05:48:30.947Z,76.05
2022-10-06T05:49:30.423Z,75.65
2022-10-06T05:50:30.392Z,75.85
2022-10-06T05:51:31.377Z,75.68
2022-10-06T05:52:30.360Z,75.28
2022-10-06T05:53:30.354Z,75.28
2022-10-06T05:54:30.351Z,75.18
2022-10-06T05:55:30.322Z,74.47
2022-10-06T05:56:30.314Z,73.96
2022-10-06T05:57:30.291Z,73.96
2022-10-06T05:58:30.806Z,74.16
2022-10-06T05:59:30.284Z,73.76
2022-10-06T06:00:30.274Z,73.76
2022-10-06T06:01:30.307Z,73.56
2022-10-06T06:02:30.285Z,73.56
2022-10-06T06:03:30.233Z,73.96
2022-10-06T06:04:30.202Z,73.76
2022-10-06T06:05:30.195Z,73.76
2022-10-06T06:06:30.183Z,73.76
2022-10-06T06:07:30.164Z,74.16
2022-10-06T06:08:30.515Z,74.20
2022-10-06T06:09:30.174Z,74.40
2022-10-06T06:10:30.136Z,74.51
2022-10-06T06:11:30.154Z,74.51
2022-10-06T06:12:30.102Z,74.71
2022-10-06T06:13:30.085Z,75.11
2022-10-06T06:14:30.064Z,75.01
2022-10-06T06:15:30.109Z,75.01
2022-10-06T06:16:30.105Z,74.30
2022-10-06T06:17:30.035Z,74.51
2022-10-06T06:18:30.345Z,74.71
2022-10-06T06:19:30.006Z,74.60
2022-10-06T06:20:30.024Z,74.60
2022-10-06T06:21:29.986Z,74.60
2022-10-06T06:22:29.966Z,74.40
2022-10-06T06:23:29.964Z,74.51
2022-10-06T06:24:29.945Z,74.00
2022-10-06T06:25:29.963Z,74.10
2022-10-06T06:26:29.923Z,74.10
2022-10-06T06:27:29.915Z,74.30
2022-10-06T06:28:30.434Z,74.10
2022-10-06T06:29:29.888Z,74.20
2022-10-06T06:30:29.856Z,74.00
2022-10-06T06:31:29.935Z,73.90
2022-10-06T06:32:29.835Z,74.00
2022-10-06T06:33:29.859Z,74.10
2022-10-06T06:34:29.808Z,74.00
2022-10-06T06:35:29.797Z,74.20
2022-10-06T06:36:29.786Z,74.10
2022-10-06T06:37:29.819Z,74.00
2022-10-06T06:38:29.965Z,73.49
2022-10-06T06:39:29.757Z,73.80
2022-10-06T06:40:29.795Z,74.00
2022-10-06T06:41:29.715Z,74.16
2022-10-06T06:42:29.695Z,74.00
2022-10-06T06:43:29.885Z,73.80
2022-10-06T06:44:29.676Z,73.59
2022-10-06T06:45:29.675Z,73.90
2022-10-06T06:46:29.765Z,73.49
2022-10-06T06:47:29.654Z,73.49
2022-10-06T06:48:29.850Z,73.80
2022-10-06T06:49:29.637Z,73.90
2022-10-06T06:50:29.618Z,73.90
2022-10-06T06:51:29.597Z,73.90
2022-10-06T06:52:29.588Z,74.00
2022-10-06T06:53:29.564Z,74.10
2022-10-06T06:54:29.597Z,73.90
2022-10-06T06:55:29.534Z,74.20
2022-10-06T06:56:29.571Z,73.90
2022-10-06T06:57:29.533Z,74.20
2022-10-06T06:58:29.741Z,74.10
2022-10-06T06:59:29.477Z,74.10
2022-10-06T07:00:33.788Z,74.20
2022-10-06T07:01:30.525Z,74.10
2022-10-06T07:02:29.527Z,74.30
2022-10-06T07:03:55.434Z,74.51
2022-10-06T07:04:30.423Z,74.60
2022-10-06T07:05:29.458Z,74.71
2022-10-06T07:06:29.557Z,74.71
2022-10-06T07:07:29.380Z,74.51
2022-10-06T07:08:29.675Z,74.40
2022-10-06T07:09:29.360Z,74.71
2022-10-06T07:10:29.348Z,74.60
2022-10-06T07:11:29.352Z,74.60
2022-10-06T07:12:29.308Z,74.60
2022-10-06T07:13:29.309Z,74.51
2022-10-06T07:14:29.298Z,74.81
2022-10-06T07:15:29.349Z,74.81
2022-10-06T07:16:29.259Z,74.71
2022-10-06T07:17:29.262Z,74.60
2022-10-06T07:18:29.515Z,74.91
2022-10-06T07:19:29.221Z,74.91
2022-10-06T07:20:29.219Z,74.91
2022-10-06T07:21:39.099Z,75.01
2022-10-06T07:22:29.248Z,75.31
2022-10-06T07:23:29.207Z,75.11
2022-10-06T07:24:29.158Z,74.60
2022-10-06T07:25:29.148Z,74.40
2022-10-06T07:26:29.130Z,74.71
2022-10-06T07:27:29.117Z,74.98
2022-10-06T07:28:29.143Z,74.98
2022-10-06T07:29:29.098Z,74.77
2022-10-06T07:30:29.080Z,74.77
2022-10-06T07:31:29.128Z,74.60
2022-10-06T07:32:29.050Z,74.81
2022-10-06T07:33:29.052Z,74.71
2022-10-06T07:34:29.072Z,74.77
2022-10-06T07:35:29.011Z,74.47
2022-10-06T07:36:29.015Z,74.16
2022-10-06T07:37:28.994Z,74.37
2022-10-06T07:38:28.971Z,74.67
2022-10-06T07:39:29.029Z,74.77
2022-10-06T07:40:28.939Z,74.47
2022-10-06T07:41:28.950Z,74.77
2022-10-06T07:42:28.913Z,74.77
2022-10-06T07:43:28.890Z,74.40
2022-10-06T07:44:28.900Z,74.57
2022-10-06T07:45:28.881Z,74.67
2022-10-06T07:46:28.947Z,74.51
2022-10-06T07:47:28.853Z,74.91
2022-10-06T07:48:28.855Z,74.87
2022-10-06T07:49:28.830Z,74.71
2022-10-06T07:50:28.822Z,74.60
2022-10-06T07:51:28.820Z,74.20
2022-10-06T07:52:28.797Z,74.81
2022-10-06T07:53:28.832Z,74.40
2022-10-06T07:54:28.782Z,74.47
2022-10-06T07:55:28.762Z,74.20
2022-10-06T07:56:28.743Z,73.86
2022-10-06T07:57:28.721Z,73.66
2022-10-06T07:58:28.704Z,73.52
2022-10-06T07:59:28.721Z,73.12
2022-10-06T08:00:28.742Z,72.72
2022-10-06T08:01:28.726Z,73.12
2022-10-06T08:02:30.265Z,72.61
2022-10-06T08:03:28.735Z,72.61
2022-10-06T08:04:28.634Z,72.51
2022-10-06T08:05:28.636Z,72.01
2022-10-06T08:06:28.615Z,72.11
2022-10-06T08:07:28.624Z,71.80
2022-10-06T08:08:28.604Z,71.20
2022-10-06T08:09:28.585Z,71.84
2022-10-06T08:10:28.565Z,72.55
2022-10-06T08:11:28.543Z,72.14
2022-10-06T08:12:28.535Z,72.11
2022-10-06T08:13:28.526Z,72.21
2022-10-06T08:14:28.503Z,72.01
2022-10-06T08:15:28.486Z,72.11
2022-10-06T08:16:28.520Z,72.31
2022-10-06T08:17:28.494Z,72.01
2022-10-06T08:18:45.324Z,72.08
2022-10-06T08:19:29.445Z,71.77
2022-10-06T08:20:28.426Z,71.97
2022-10-06T08:21:28.425Z,71.77
2022-10-06T08:22:28.476Z,71.57
2022-10-06T08:23:28.406Z,71.84
2022-10-06T08:24:37.874Z,71.64
2022-10-06T08:25:29.366Z,71.87
2022-10-06T08:26:28.357Z,72.08
2022-10-06T08:27:28.406Z,71.17
2022-10-06T08:28:28.574Z,70.15
2022-10-06T08:29:28.314Z,71.09
2022-10-06T08:30:28.303Z,70.79
2022-10-06T08:31:28.361Z,71.09
2022-10-06T08:32:28.345Z,70.49
2022-10-06T08:33:28.263Z,71.40
2022-10-06T08:34:28.263Z,71.60
2022-10-06T08:35:28.353Z,71.80
2022-10-06T08:36:31.312Z,71.30
2022-10-06T08:37:28.392Z,69.98
2022-10-06T08:38:28.227Z,69.24
2022-10-06T08:39:28.205Z,68.94
2022-10-06T08:40:28.183Z,69.04
2022-10-06T08:41:28.171Z,69.14
2022-10-06T08:42:28.146Z,68.16
2022-10-06T08:43:28.140Z,68.57
2022-10-06T08:44:28.149Z,68.13
2022-10-06T08:45:28.147Z,68.43
2022-10-06T08:46:28.116Z,68.33
2022-10-06T08:47:28.116Z,68.43
2022-10-06T08:48:28.096Z,68.84
2022-10-06T08:49:28.090Z,68.13
2022-10-06T08:50:28.060Z,68.43
2022-10-06T08:51:28.057Z,67.32
2022-10-06T08:52:28.069Z,67.02
2022-10-06T08:53:28.007Z,66.82
2022-10-06T08:54:28.038Z,67.32
2022-10-06T08:55:27.998Z,67.22
2022-10-06T08:56:27.978Z,67.15
2022-10-06T08:57:27.969Z,66.85
2022-10-06T08:58:27.968Z,66.55
2022-10-06T08:59:27.951Z,66.55
2022-10-06T09:00:27.939Z,66.85
2022-10-06T09:01:27.972Z,66.64
2022-10-06T09:02:27.967Z,66.61
2022-10-06T09:03:27.906Z,66.52
2022-10-06T09:04:27.890Z,66.82
2022-10-06T09:05:27.911Z,66.52
2022-10-06T09:06:27.871Z,66.28
2022-10-06T09:07:27.829Z,65.98
2022-10-06T09:08:27.819Z,65.84
2022-10-06T09:09:27.809Z,65.14
2022-10-06T09:10:27.799Z,64.53
2022-10-06T09:11:28.470Z,64.03
2022-10-06T09:12:27.789Z,63.82
2022-10-06T09:13:27.760Z,63.73
2022-10-06T09:14:27.749Z,63.93
2022-10-06T09:15:27.753Z,63.70
2022-10-06T09:16:27.807Z,63.49
2022-10-06T09:17:27.713Z,63.59
2022-10-06T09:18:43.498Z,63.09
2022-10-06T09:19:32.850Z,63.49
2022-10-06T09:20:28.672Z,63.59
2022-10-06T09:21:27.663Z,63.79
2022-10-06T09:22:27.654Z,63.49
2022-10-06T09:23:27.642Z,63.19
2022-10-06T09:24:27.625Z,63.73
2022-10-06T09:25:27.599Z,64.03
2022-10-06T09:26:27.582Z,63.62
2022-10-06T09:27:27.600Z,64.13
2022-10-06T09:28:27.637Z,64.13
2022-10-06T09:29:27.561Z,64.13
2022-10-06T09:30:27.532Z,63.73
2022-10-06T09:31:27.733Z,63.93
2022-10-06T09:32:27.515Z,64.33
2022-10-06T09:33:27.504Z,63.96
2022-10-06T09:34:27.534Z,63.55
2022-10-06T09:35:27.465Z,63.85
2022-10-06T09:36:27.455Z,62.85
2022-10-06T09:37:27.466Z,62.74
2022-10-06T09:38:27.426Z,63.38
2022-10-06T09:39:27.426Z,63.99
2022-10-06T09:40:27.400Z,63.21
2022-10-06T09:41:27.393Z,63.71
2022-10-06T09:42:27.381Z,63.71
2022-10-06T09:43:27.367Z,63.78
2022-10-06T09:44:27.368Z,63.92
2022-10-06T09:45:27.335Z,63.41
2022-10-06T09:46:27.326Z,63.61
2022-10-06T09:47:27.304Z,63.71
2022-10-06T09:48:27.303Z,64.02
2022-10-06T09:49:27.299Z,64.02
2022-10-06T09:50:27.324Z,64.12
2022-10-06T09:51:27.262Z,64.42
2022-10-06T09:52:27.244Z,64.29
2022-10-06T09:53:27.246Z,64.19
2022-10-06T09:54:27.222Z,63.92
2022-10-06T09:55:27.269Z,63.10
2022-10-06T09:56:27.197Z,63.10
2022-10-06T09:57:27.197Z,63.10
2022-10-06T09:58:27.175Z,63.41
2022-10-06T09:59:27.156Z,63.71
2022-10-06T10:00:27.157Z,63.08
2022-10-06T10:01:27.255Z,62.67
2022-10-06T10:02:27.241Z,63.08
2022-10-06T10:03:27.114Z,63.15
2022-10-06T10:04:27.097Z,63.25
2022-10-06T10:05:27.086Z,63.45
2022-10-06T10:06:27.067Z,63.52
2022-10-06T10:07:27.118Z,62.82
2022-10-06T10:08:27.099Z,62.62
2022-10-06T10:09:27.108Z,62.82
2022-10-06T10:10:27.038Z,62.71
2022-10-06T10:11:27.018Z,62.88
2022-10-06T10:12:26.998Z,61.47
2022-10-06T10:13:27.008Z,62.01
2022-10-06T10:14:26.968Z,61.71
2022-10-06T10:15:26.958Z,62.01
2022-10-06T10:16:27.126Z,61.71
2022-10-06T10:17:26.935Z,61.63
2022-10-06T10:18:26.998Z,61.51
2022-10-06T10:19:26.900Z,60.89
2022-10-06T10:20:26.888Z,60.80
2022-10-06T10:21:26.887Z,60.77
2022-10-06T10:22:26.934Z,60.16
2022-10-06T10:23:31.151Z,59.22
2022-10-06T10:24:27.868Z,59.12
2022-10-06T10:25:26.819Z,58.82
2022-10-06T10:26:26.809Z,58.01
2022-10-06T10:27:26.800Z,57.91
2022-10-06T10:28:26.850Z,57.43
2022-10-06T10:29:30.524Z,57.71
2022-10-06T10:30:27.767Z,57.91
2022-10-06T10:31:26.822Z,57.89
2022-10-06T10:32:26.770Z,57.48
2022-10-06T10:33:26.763Z,57.28
2022-10-06T10:34:26.712Z,57.18
2022-10-06T10:35:26.770Z,56.88
2022-10-06T10:36:26.670Z,56.68
2022-10-06T10:37:26.659Z,57.28
2022-10-06T10:38:26.648Z,56.98
2022-10-06T10:39:26.642Z,56.77
2022-10-06T10:40:26.621Z,56.48
2022-10-06T10:41:26.610Z,56.60
2022-10-06T10:42:26.590Z,56.81
2022-10-06T10:43:26.604Z,56.10
2022-10-06T10:44:26.685Z,56.90
2022-10-06T10:45:26.561Z,57.48
2022-10-06T10:46:26.570Z,57.38
2022-10-06T10:47:26.531Z,57.18
2022-10-06T10:48:26.581Z,56.98
2022-10-06T10:49:26.502Z,57.08
2022-10-06T10:50:26.516Z,57.51
2022-10-06T10:51:26.485Z,57.61
2022-10-06T10:52:26.472Z,58.01
2022-10-06T10:53:26.453Z,57.98
2022-10-06T10:54:26.436Z,57.89
2022-10-06T10:55:26.434Z,58.29
2022-10-06T10:56:26.421Z,58.16
2022-10-06T10:57:26.394Z,57.65
2022-10-06T10:58:26.435Z,58.16
2022-10-06T10:59:26.372Z,58.16
2022-10-06T11:00:26.353Z,57.96
2022-10-06T11:01:26.365Z,57.76
2022-10-06T11:02:26.330Z,57.76
2022-10-06T11:03:26.352Z,57.86
2022-10-06T11:04:26.304Z,56.82
2022-10-06T11:05:28.831Z,56.02
2022-10-06T11:06:26.289Z,56.12
2022-10-06T11:07:26.276Z,56.45
2022-10-06T11:08:26.245Z,56.35
2022-10-06T11:09:26.236Z,57.25
2022-10-06T11:10:26.241Z,57.05
2022-10-06T11:11:26.208Z,56.72
2022-10-06T11:12:26.196Z,56.52
2022-10-06T11:13:26.184Z,56.62
2022-10-06T11:14:26.176Z,56.42
2022-10-06T11:15:26.165Z,56.32
2022-10-06T11:16:26.214Z,56.22
2022-10-06T11:17:26.125Z,56.49
2022-10-06T11:18:26.127Z,56.09
2022-10-06T11:19:26.097Z,56.32
2022-10-06T11:20:26.103Z,55.71
2022-10-06T11:21:26.085Z,55.94
2022-10-06T11:22:26.070Z,55.84
2022-10-06T11:23:26.063Z,55.44
2022-10-06T11:24:26.062Z,55.26
2022-10-06T11:25:26.951Z,55.94
2022-10-06T11:26:26.028Z,55.97
2022-10-06T11:27:26.125Z,55.54
2022-10-06T11:28:26.048Z,55.34
2022-10-06T11:29:25.986Z,55.14
2022-10-06T11:30:25.980Z,54.96
2022-10-06T11:31:26.027Z,55.24
2022-10-06T11:32:25.947Z,55.36
2022-10-06T11:33:25.947Z,55.77
2022-10-06T11:34:25.911Z,56.30
2022-10-06T11:35:25.896Z,56.60
2022-10-06T11:36:25.889Z,56.70
2022-10-06T11:37:25.880Z,56.90
2022-10-06T11:38:25.858Z,57.21
2022-10-06T11:39:25.857Z,57.31
2022-10-06T11:40:25.841Z,57.01
2022-10-06T11:41:25.831Z,57.01
2022-10-06T11:42:25.896Z,57.01
2022-10-06T11:43:25.811Z,56.88
2022-10-06T11:44:25.790Z,56.57
2022-10-06T11:45:25.779Z,55.44
2022-10-06T11:46:29.670Z,55.04
2022-10-06T11:47:35.017Z,55.01
2022-10-06T11:48:26.761Z,55.01
2022-10-06T11:49:25.710Z,54.79
2022-10-06T11:50:25.710Z,54.68
2022-10-06T11:51:25.699Z,54.88
2022-10-06T11:52:25.679Z,55.49
2022-10-06T11:53:25.681Z,55.71
2022-10-06T11:54:25.682Z,56.24
2022-10-06T11:55:25.649Z,56.75
2022-10-06T11:56:25.620Z,56.75
2022-10-06T11:57:30.633Z,57.15
2022-10-06T11:58:42.753Z,56.85
2022-10-06T11:59:26.590Z,56.92
2022-10-06T12:00:25.571Z,56.72
2022-10-06T12:01:25.571Z,56.82
2022-10-06T12:02:25.665Z,56.52
2022-10-06T12:03:25.707Z,56.75
2022-10-06T12:04:25.523Z,56.95
2022-10-06T12:06:26.503Z,56.92
2022-10-06T12:07:25.494Z,56.62
2022-10-06T12:08:25.474Z,56.29
2022-10-06T12:09:25.491Z,56.40
2022-10-06T12:10:25.453Z,56.02
2022-10-06T12:11:25.432Z,56.32
2022-10-06T12:12:25.443Z,56.12
2022-10-06T12:16:00.012Z,55.89
2022-10-06T12:17:26.360Z,55.26
2022-10-06T12:18:25.342Z,54.75
2022-10-06T12:19:25.335Z,55.33
2022-10-06T12:20:25.325Z,54.73
2022-10-06T12:21:25.314Z,54.73
2022-10-06T12:22:25.305Z,55.16
2022-10-06T12:23:25.299Z,55.36
2022-10-06T12:24:25.275Z,55.69
2022-10-06T12:25:25.286Z,55.06
2022-10-06T12:26:25.258Z,54.46
2022-10-06T12:27:26.118Z,54.18
2022-10-06T12:28:25.312Z,54.28
2022-10-06T12:29:25.204Z,54.38
2022-10-06T12:30:25.185Z,55.08
2022-10-06T12:31:25.242Z,53.95
2022-10-06T12:32:25.163Z,54.03
2022-10-06T12:33:25.154Z,54.03
2022-10-06T12:34:25.135Z,53.80
2022-10-06T12:35:25.135Z,53.32
2022-10-06T12:36:25.125Z,53.52
2022-10-06T12:37:25.124Z,52.62
2022-10-06T12:38:25.097Z,52.54
2022-10-06T12:39:25.089Z,53.25
2022-10-06T12:40:25.078Z,53.45
2022-10-06T12:41:25.058Z,53.22
2022-10-06T12:42:25.070Z,52.22
2022-10-06T12:43:25.034Z,51.81
2022-10-06T12:44:25.019Z,51.71
2022-10-06T12:45:24.995Z,52.44
2022-10-06T12:46:25.107Z,51.73
2022-10-06T12:47:25.028Z,52.14
2022-10-06T12:48:24.967Z,52.77
2022-10-06T12:49:24.946Z,53.07
2022-10-06T12:50:24.997Z,53.27
2022-10-06T12:51:24.970Z,53.38
2022-10-06T12:52:24.910Z,53.17
2022-10-06T12:53:24.919Z,53.14
2022-10-06T12:54:24.881Z,52.84
2022-10-06T12:55:24.878Z,52.44
2022-10-06T12:56:24.860Z,52.54